Terminal Aerodrome Forecast
Issued by NWS Boston, MA

Current Version | Previous Version | Text Only | Print | Product List | Glossary On
Versions: 1 2 3 4 5 6 7 8 9 10 11 12 13 14 15 16 17 18 19 20 21 22 23 24 25 26 27 28 29 30 31 32 33 34 35 36 37 38 39 40 41 42 43 44
000 FTUS41 KBOX 261131 AAC TAFBDL TAF AMD KBDL 261131Z 2612/2718 00000KT 1/4SM FG OVC001 FM261400 00000KT 4SM BR SCT003 FM261600 00000KT P6SM SCT250 FM270500 VRB03KT 5SM BR FEW250 FM270800 00000KT 1/2SM FG OVC002 FM271300 00000KT 2SM BR BKN004 FM271500 VRB03KT P6SM BKN090=

USA.gov is the U.S. government's official web portal to all federal, state and local government web resources and services.